Time;durP1;ratioP1;P1;durP2;ratioP2;P2;SDS_P1;SDS_P2;PMS_P1;PMS_P2;Temp;Humidity;BMP_temperature;BMP_pressure;BME280_temperature;BME280_humidity;BME280_pressure;Samples;Min_cycle;Max_cycle;Signal;HPM_P1;HPM_P2
2023/09/01 00:01:00;;;;;;;15.98;11.15;;;;;;;11.78;100.00;100241.63;5032003;28;20037;-78
2023/09/01 00:03:42;;;;;;;15.93;12.55;;;;;;;11.76;100.00;100241.84;5031273;28;20095;-78
2023/09/01 00:06:13;;;;;;;15.63;12.30;;;;;;;11.74;100.00;100235.78;5038893;28;20045;-78
2023/09/01 00:08:39;;;;;;;15.23;11.93;;;;;;;11.72;100.00;100226.19;5030343;28;20041;-77
2023/09/01 00:11:05;;;;;;;16.90;13.10;;;;;;;11.70;100.00;100226.41;5044609;28;20045;-78
2023/09/01 00:13:31;;;;;;;16.60;13.50;;;;;;;11.69;100.00;100226.66;5037389;28;20044;-77
2023/09/01 00:15:57;;;;;;;18.25;14.02;;;;;;;11.70;100.00;100222.84;5033275;28;20038;-77
2023/09/01 00:18:24;;;;;;;17.05;13.38;;;;;;;11.72;100.00;100210.59;5035870;28;20041;-78
2023/09/01 00:20:50;;;;;;;17.67;13.60;;;;;;;11.71;100.00;100206.22;5035009;28;20026;-77
2023/09/01 00:23:16;;;;;;;15.38;13.48;;;;;;;11.72;100.00;100210.59;5039396;28;20033;-78
2023/09/01 00:25:42;;;;;;;17.95;13.00;;;;;;;11.72;100.00;100210.59;5036389;28;20042;-77
2023/09/01 00:28:08;;;;;;;19.65;14.02;;;;;;;11.67;100.00;100213.22;5041583;28;20790;-77
2023/09/01 00:30:51;;;;;;;18.10;14.10;;;;;;;11.67;100.00;100213.22;5045910;28;20037;-77
2023/09/01 00:33:17;;;;;;;16.42;14.23;;;;;;;11.66;100.00;100220.56;5036828;28;20108;-77
2023/09/01 00:35:43;;;;;;;18.73;14.05;;;;;;;11.68;100.00;100203.13;5042536;28;20041;-78
2023/09/01 00:38:09;;;;;;;18.38;14.55;;;;;;;11.65;100.00;100199.78;5039959;28;20025;-77
2023/09/01 00:40:35;;;;;;;16.20;14.23;;;;;;;11.69;100.00;100193.88;5050365;28;20050;-77
2023/09/01 00:43:02;;;;;;;16.98;14.02;;;;;;;11.66;100.00;100195.16;5048385;28;20553;-77
2023/09/01 00:45:28;;;;;;;20.02;14.50;;;;;;;11.64;100.00;100203.56;5034738;28;20096;-77
2023/09/01 00:47:55;;;;;;;18.55;14.40;;;;;;;11.63;100.00;100203.84;5033344;28;20071;-78
2023/09/01 00:50:21;;;;;;;17.02;14.23;;;;;;;11.66;100.00;100197.88;5048718;28;20535;-77
2023/09/01 00:52:47;;;;;;;18.70;14.70;;;;;;;11.63;100.00;100201.91;5040328;28;20038;-77
2023/09/01 00:55:13;;;;;;;20.23;15.27;;;;;;;11.65;100.00;100207.16;5036859;28;20080;-77
2023/09/01 00:57:39;;;;;;;22.50;14.63;;;;;;;11.60;100.00;100198.84;5033430;28;20034;-77
2023/09/01 01:00:06;;;;;;;18.50;15.10;;;;;;;11.59;100.00;100202.63;5039202;28;20030;-77
2023/09/01 01:02:33;;;;;;;18.98;14.95;;;;;;;11.53;100.00;100212.59;5034179;28;20038;-77
2023/09/01 01:04:59;;;;;;;22.20;15.95;;;;;;;11.52;100.00;100194.53;5033480;28;20042;-77
2023/09/01 01:07:42;;;;;;;22.25;17.17;;;;;;;11.55;100.00;100188.59;5037615;28;20112;-77
2023/09/01 01:10:24;;;;;;;21.83;16.92;;;;;;;11.57;100.00;100189.19;5040611;28;20434;-78
2023/09/01 01:13:00;;;;;;;22.13;16.17;;;;;;;11.62;100.00;100193.97;5033931;28;20045;-77
2023/09/01 01:15:32;;;;;;;21.33;16.65;;;;;;;11.55;100.00;100199.53;5042695;28;20033;-77
2023/09/01 01:18:00;;;;;;;22.80;16.92;;;;;;;11.45;100.00;100205.56;5034151;28;20485;-77
2023/09/01 01:20:33;;;;;;;23.88;17.45;;;;;;;11.44;100.00;100198.44;5034107;28;20037;-77
2023/09/01 01:23:17;;;;;;;25.30;17.83;;;;;;;11.39;100.00;100187.38;5037124;28;20061;-77
2023/09/01 01:25:51;;;;;;;21.35;16.88;;;;;;;11.49;100.00;100178.63;5034210;28;20388;-77
2023/09/01 01:28:18;;;;;;;24.20;17.33;;;;;;;11.50;100.00;100181.09;5033573;28;20179;-77
2023/09/01 01:30:49;;;;;;;20.27;16.88;;;;;;;11.50;100.00;100185.75;5033526;28;20044;-77
2023/09/01 01:33:32;;;;;;;21.48;16.52;;;;;;;11.46;100.00;100190.84;5033996;28;20397;-77
2023/09/01 01:36:11;;;;;;;19.77;16.85;;;;;;;11.52;100.00;100183.63;5034400;28;20036;-77
2023/09/01 01:38:40;;;;;;;21.92;16.67;;;;;;;11.48;100.00;100183.25;5036043;28;20041;-77
2023/09/01 01:41:14;;;;;;;23.23;16.85;;;;;;;11.50;100.00;100181.09;5038442;28;20028;-77
2023/09/01 01:43:44;;;;;;;22.52;17.08;;;;;;;11.50;100.00;100180.28;5037718;28;20516;-77
2023/09/01 01:46:10;;;;;;;22.42;16.77;;;;;;;11.52;100.00;100183.63;5032698;28;20508;-77
2023/09/01 01:48:37;;;;;;;21.65;16.02;;;;;;;11.53;100.00;100179.81;5016488;28;20531;-77
2023/09/01 01:51:05;;;;;;;23.20;17.45;;;;;;;11.53;100.00;100185.28;5032678;28;20072;-77
2023/09/01 01:53:34;;;;;;;;;;;;;;;11.54;100.00;100189.66;5033876;28;20033;-77
2023/09/01 01:56:03;;;;;;;18.52;15.45;;;;;;;11.61;100.00;100184.09;5033531;28;19917;-77
2023/09/01 01:58:30;;;;;;;20.27;16.40;;;;;;;11.64;100.00;100189.91;5042655;28;20042;-77
2023/09/01 02:00:56;;;;;;;21.23;15.90;;;;;;;11.66;100.00;100193.25;5032623;28;20041;-77
2023/09/01 02:03:22;;;;;;;21.40;16.33;;;;;;;11.68;100.00;100203.13;5032053;28;20041;-78
2023/09/01 02:05:48;;;;;;;20.48;15.88;;;;;;;11.72;100.00;100198.84;5047380;28;20044;-76
2023/09/01 02:08:15;;;;;;;18.73;14.88;;;;;;;11.75;100.00;100204.66;5041201;28;20075;-77
2023/09/01 02:10:41;;;;;;;20.02;13.93;;;;;;;11.74;100.00;100210.38;5033320;28;20128;-77
2023/09/01 02:13:07;;;;;;;19.90;14.60;;;;;;;11.75;100.00;100209.31;5035427;28;20499;-77
2023/09/01 02:15:33;;;;;;;19.65;13.93;;;;;;;11.74;100.00;100230.31;5035438;28;20060;-77
2023/09/01 02:17:59;;;;;;;17.98;13.80;;;;;;;11.68;100.00;100219.53;5027656;28;20117;-77
2023/09/01 02:20:26;;;;;;;19.35;14.52;;;;;;;11.72;100.00;100220.72;5031688;28;20120;-77
2023/09/01 02:22:54;;;;;;;18.10;13.50;;;;;;;11.73;100.00;100222.38;5033456;28;20872;-77
2023/09/01 02:25:21;;;;;;;17.40;13.60;;;;;;;11.69;100.00;100226.66;5036619;28;20034;-77
2023/09/01 02:27:47;;;;;;;19.17;13.80;;;;;;;11.64;100.00;100214.50;5033058;28;20544;-77
2023/09/01 02:30:13;;;;;;;15.77;13.00;;;;;;;11.69;100.00;100223.94;5032823;28;20048;-77
2023/09/01 02:32:40;;;;;;;18.30;13.57;;;;;;;11.66;100.00;100228.75;5036244;28;20047;-77
2023/09/01 02:35:08;;;;;;;17.30;13.80;;;;;;;11.64;100.00;100225.44;5032390;28;20367;-77
2023/09/01 02:37:35;;;;;;;18.73;13.77;;;;;;;11.66;100.00;100217.03;5017946;28;20036;-77
2023/09/01 02:40:10;;;;;;;19.25;14.13;;;;;;;11.65;100.00;100216.16;5046602;28;20045;-77
2023/09/01 02:42:40;;;;;;;20.70;13.48;;;;;;;11.60;100.00;100217.97;5047898;28;20033;-77
2023/09/01 02:45:09;;;;;;;18.17;14.40;;;;;;;11.57;100.00;100219.25;5032907;28;20107;-77
2023/09/01 02:47:35;;;;;;;19.45;13.68;;;;;;;11.57;100.00;100212.97;5035074;28;20039;-77
2023/09/01 02:50:03;;;;;;;17.52;13.45;;;;;;;11.60;100.00;100210.59;5045153;28;20489;-77
2023/09/01 02:52:29;;;;;;;;;;;;;;;11.61;100.00;100219.63;5030092;28;20040;-76
2023/09/01 02:54:55;;;;;;;21.00;14.35;;;;;;;11.62;100.00;100216.66;5061826;28;19994;-76
2023/09/01 02:57:22;;;;;;;18.08;13.95;;;;;;;11.58;100.00;100215.44;5044660;28;20075;-77
2023/09/01 02:59:49;;;;;;;18.17;14.18;;;;;;;11.54;100.00;100221.59;5038611;28;20053;-76
2023/09/01 03:02:15;;;;;;;23.47;15.27;;;;;;;11.54;100.00;100217.00;5031117;28;20493;-76
2023/09/01 03:04:41;;;;;;;21.35;13.85;;;;;;;11.59;100.00;100206.19;5030817;28;20290;-76
2023/09/01 03:07:08;;;;;;;23.02;15.40;;;;;;;11.52;100.00;100206.28;5031944;28;20037;-76
2023/09/01 03:09:34;;;;;;;18.92;14.95;;;;;;;11.52;100.00;100202.72;5022149;28;20128;-76
2023/09/01 03:12:00;;;;;;;25.80;15.48;;;;;;;11.56;100.00;100198.47;5043773;28;20116;-76
2023/09/01 03:14:26;;;;;;;20.42;14.95;;;;;;;11.57;100.00;100202.84;5041161;28;20049;-76
2023/09/01 03:16:52;;;;;;;20.42;15.23;;;;;;;11.46;100.00;100204.50;5045892;28;20044;-76
2023/09/01 03:19:18;;;;;;;20.55;15.60;;;;;;;11.39;100.00;100209.22;5045771;28;20037;-76
2023/09/01 03:21:45;;;;;;;22.27;15.73;;;;;;;11.38;100.00;100202.09;5037269;28;20075;-76
2023/09/01 03:24:11;;;;;;;24.63;15.75;;;;;;;11.33;100.00;100208.25;5031058;28;20438;-76
2023/09/01 03:26:38;;;;;;;24.17;16.80;;;;;;;11.32;100.00;100205.78;5024954;28;20112;-76
2023/09/01 03:29:04;;;;;;;25.35;17.27;;;;;;;11.31;100.00;100209.56;5035558;28;20029;-76
2023/09/01 03:31:33;;;;;;;24.67;16.20;;;;;;;11.29;100.00;100207.06;5039935;28;20033;-76
2023/09/01 03:34:03;;;;;;;24.60;16.92;;;;;;;11.25;100.00;100207.75;5030687;28;20048;-76
2023/09/01 03:36:30;;;;;;;24.00;16.77;;;;;;;11.26;100.00;100206.69;5032959;28;20034;-76
2023/09/01 03:38:59;;;;;;;23.23;16.58;;;;;;;11.23;100.00;100202.53;5025613;28;20052;-76
2023/09/01 03:41:25;;;;;;;25.33;16.65;;;;;;;11.23;100.00;100216.19;5035800;28;20483;-78
2023/09/01 03:43:52;;;;;;;28.60;18.17;;;;;;;11.22;100.00;100218.06;5031682;28;20089;-77
2023/09/01 03:46:18;;;;;;;24.75;17.45;;;;;;;11.21;100.00;100224.59;5035530;28;20071;-77
2023/09/01 03:48:44;;;;;;;25.33;17.30;;;;;;;11.17;100.00;100230.78;5030646;28;20065;-77
2023/09/01 03:51:17;;;;;;;26.40;17.77;;;;;;;11.13;100.00;100224.09;5033141;28;20076;-77
2023/09/01 03:53:43;;;;;;;26.23;17.63;;;;;;;11.05;100.00;100231.53;5035965;28;20029;-77
2023/09/01 03:56:13;;;;;;;22.30;17.08;;;;;;;11.04;100.00;100218.94;5040889;28;20104;-77
2023/09/01 03:58:39;;;;;;;25.75;17.83;;;;;;;11.08;100.00;100201.03;5036195;28;20488;-77
2023/09/01 04:01:08;;;;;;;26.83;17.90;;;;;;;11.19;100.00;100193.97;5046170;28;20041;-78
2023/09/01 04:03:36;;;;;;;24.08;17.70;;;;;;;11.21;100.00;100193.75;5036857;28;20499;-75
2023/09/01 04:06:05;;;;;;;23.77;16.55;;;;;;;11.25;100.00;100194.94;5040170;28;20033;-75
2023/09/01 04:08:31;;;;;;;26.17;16.90;;;;;;;11.20;100.00;100198.34;5035903;28;20103;-75
2023/09/01 04:10:57;;;;;;;29.80;17.20;;;;;;;11.21;100.00;100199.22;5035991;28;20045;-75
2023/09/01 04:13:23;;;;;;;24.67;16.13;;;;;;;11.19;100.00;100201.34;5043425;28;20504;-75
2023/09/01 04:15:51;;;;;;;25.60;18.00;;;;;;;11.18;100.00;100196.94;5034689;28;20038;-75
2023/09/01 04:18:18;;;;;;;22.42;16.80;;;;;;;11.18;100.00;100199.69;5040410;28;20039;-75
2023/09/01 04:20:48;;;;;;;26.88;17.17;;;;;;;11.15;100.00;100195.50;5034507;28;20522;-75
2023/09/01 04:23:15;;;;;;;25.95;16.80;;;;;;;11.17;100.00;100196.09;5040421;28;20037;-75
2023/09/01 04:25:49;;;;;;;29.58;17.75;;;;;;;11.12;100.00;100204.16;5049573;28;20025;-75
2023/09/01 04:28:20;;;;;;;22.90;17.23;;;;;;;11.15;100.00;100202.88;5039867;28;20036;-75
2023/09/01 04:30:50;;;;;;;32.95;18.15;;;;;;;11.16;100.00;100201.81;5038819;28;20881;-75
2023/09/01 04:33:17;;;;;;;29.40;17.48;;;;;;;11.16;100.00;100207.25;5034371;28;20036;-76
2023/09/01 04:35:44;;;;;;;27.30;18.63;;;;;;;11.04;100.00;100199.03;5034406;28;20519;-76
2023/09/01 04:38:10;;;;;;;25.67;16.85;;;;;;;11.15;100.00;100205.59;5043498;28;20034;-76
2023/09/01 04:40:36;;;;;;;25.88;16.92;;;;;;;11.13;100.00;100210.44;5034513;28;20033;-76
2023/09/01 04:43:02;;;;;;;28.90;18.73;;;;;;;11.15;100.00;100205.59;5052212;28;20029;-78
2023/09/01 04:45:29;;;;;;;27.55;19.10;;;;;;;11.25;100.00;100184.03;5045688;28;20507;-78
2023/09/01 04:47:55;;;;;;;31.17;19.45;;;;;;;11.33;100.00;100180.13;5054023;28;20063;-77
2023/09/01 04:50:21;;;;;;;32.72;20.15;;;;;;;11.34;100.00;100179.88;5050973;28;20041;-78
2023/09/01 04:52:48;;;;;;;27.80;18.85;;;;;;;11.37;100.00;100181.31;5053104;28;20045;-77
2023/09/01 04:55:15;;;;;;;33.17;19.40;;;;;;;11.43;100.00;100179.56;5049178;28;20513;-78
2023/09/01 04:57:41;;;;;;;31.48;19.65;;;;;;;11.45;100.00;100188.34;5047077;28;20481;-77
2023/09/01 05:00:15;;;;;;;25.75;18.83;;;;;;;11.47;100.00;100197.97;5040385;28;20396;-77
2023/09/01 05:02:45;;;;;;;29.55;19.63;;;;;;;11.57;100.00;100202.03;5034422;28;20513;-77
2023/09/01 05:05:12;;;;;;;27.17;18.98;;;;;;;11.61;100.00;100204.06;5034344;28;20035;-79
2023/09/01 05:07:39;;;;;;;28.00;18.52;;;;;;;11.68;100.00;100211.34;5025809;28;20172;-79
2023/09/01 05:10:06;;;;;;;30.30;18.48;;;;;;;11.74;100.00;100213.94;5037344;28;20080;-80
2023/09/01 05:12:32;;;;;;;26.65;18.15;;;;;;;11.76;100.00;100219.19;5032695;28;20030;-81
2023/09/01 05:14:59;;;;;;;24.25;17.00;;;;;;;11.85;100.00;100233.34;5034852;28;20072;-80
2023/09/01 05:17:25;;;;;;;25.45;17.08;;;;;;;11.90;100.00;100239.75;5032654;28;20112;-80
2023/09/01 05:19:51;;;;;;;25.55;17.10;;;;;;;11.99;100.00;100250.34;5040052;28;20033;-80
2023/09/01 05:22:18;;;;;;;21.88;15.73;;;;;;;12.07;100.00;100248.13;5019621;28;20512;-84
2023/09/01 05:24:44;;;;;;;24.23;15.95;;;;;;;12.15;100.00;100248.84;5041208;28;20113;-80
2023/09/01 05:27:10;;;;;;;24.45;15.25;;;;;;;12.20;100.00;100248.97;5046680;28;20563;-79
2023/09/01 05:29:36;;;;;;;21.83;16.17;;;;;;;12.20;100.00;100255.28;5050606;28;20030;-80
2023/09/01 05:32:03;;;;;;;24.35;15.35;;;;;;;12.31;100.00;100260.97;5044892;28;20398;-78
2023/09/01 05:34:29;;;;;;;22.63;15.17;;;;;;;12.39;100.00;100268.81;5046067;28;20394;-79
2023/09/01 05:36:57;;;;;;;20.05;14.93;;;;;;;12.52;100.00;100275.94;5034441;28;20096;-79
2023/09/01 05:39:24;;;;;;;20.50;14.65;;;;;;;12.62;100.00;100283.56;5042314;28;20079;-79
2023/09/01 05:41:50;;;;;;;25.48;14.65;;;;;;;12.71;100.00;100293.06;5033865;28;20089;-79
2023/09/01 05:44:17;;;;;;;18.90;12.77;;;;;;;12.76;100.00;100301.41;5051826;28;20025;-78
2023/09/01 05:46:44;;;;;;;20.48;12.55;;;;;;;12.84;100.00;100307.56;5035367;28;20087;-79
2023/09/01 05:49:11;;;;;;;17.45;11.27;;;;;;;12.96;100.00;100322.06;5043223;28;20366;-80
2023/09/01 05:51:37;;;;;;;16.02;11.20;;;;;;;13.07;100.00;100334.91;5037550;28;20408;-79
2023/09/01 05:54:03;;;;;;;16.52;11.38;;;;;;;13.20;100.00;100341.19;5033889;28;20095;-79
2023/09/01 05:56:29;;;;;;;15.75;10.05;;;;;;;13.24;100.00;100348.69;5035326;28;20036;-80
2023/09/01 05:58:55;;;;;;;12.38;9.80;;;;;;;13.29;100.00;100350.72;5040264;28;20040;-79
2023/09/01 06:01:21;;;;;;;12.75;9.45;;;;;;;13.32;100.00;100358.44;5050840;28;20040;-79
2023/09/01 06:03:47;;;;;;;12.20;9.75;;;;;;;13.35;100.00;100376.28;5036575;28;20532;-79
2023/09/01 06:06:13;;;;;;;13.15;9.18;;;;;;;13.59;100.00;100377.09;5034120;28;20045;-79
2023/09/01 06:08:40;;;;;;;13.05;8.93;;;;;;;13.78;100.00;100382.38;5033751;28;20551;-79
2023/09/01 06:11:08;;;;;;;12.40;8.98;;;;;;;13.88;100.00;100398.19;5033354;28;20041;-80
2023/09/01 06:13:34;;;;;;;11.27;8.25;;;;;;;14.06;100.00;100406.22;5036715;28;20053;-81
2023/09/01 06:16:03;;;;;;;11.65;8.25;;;;;;;14.12;100.00;100420.03;5034274;28;20394;-81
2023/09/01 06:18:30;;;;;;;11.32;7.82;;;;;;;14.00;100.00;100422.81;5038080;28;20041;-79
2023/09/01 06:20:56;;;;;;;12.57;7.60;;;;;;;14.17;100.00;100423.69;5037228;28;20041;-79
2023/09/01 06:23:22;;;;;;;13.73;8.77;;;;;;;14.36;100.00;100426.22;5033478;28;20436;-81
2023/09/01 06:25:48;;;;;;;11.95;7.50;;;;;;;14.46;100.00;100437.38;5035209;28;20094;-79
2023/09/01 06:28:14;;;;;;;11.10;6.50;;;;;;;14.63;100.00;100442.06;5039234;28;20041;-78
2023/09/01 06:30:41;;;;;;;9.85;6.25;;;;;;;14.62;100.00;100452.19;5041150;28;20460;-85
2023/09/01 06:33:08;;;;;;;10.27;6.13;;;;;;;14.76;100.00;100460.97;5034193;28;20071;-80
2023/09/01 06:35:35;;;;;;;8.65;6.28;;;;;;;14.94;100.00;100470.03;5048018;28;20485;-78
2023/09/01 06:38:05;;;;;;;8.93;5.70;;;;;;;14.89;100.00;100476.28;5043608;28;20493;-78
2023/09/01 06:40:31;;;;;;;9.82;5.38;;;;;;;15.06;100.00;100478.19;5031740;28;20042;-78
2023/09/01 06:42:57;;;;;;;8.43;4.90;;;;;;;15.21;100.00;100475.66;5037852;28;20385;-79
2023/09/01 06:45:23;;;;;;;8.35;5.28;;;;;;;15.30;100.00;100491.75;5040626;28;20041;-78
2023/09/01 06:47:55;;;;;;;10.15;4.93;;;;;;;15.34;100.00;100487.41;5031936;28;20037;-77
2023/09/01 06:50:21;;;;;;;10.07;5.28;;;;;;;15.35;100.00;100484.38;5037696;28;20037;-78
2023/09/01 06:52:47;;;;;;;10.77;5.13;;;;;;;15.50;100.00;100482.94;5036774;28;20032;-78
2023/09/01 06:55:14;;;;;;;9.25;5.22;;;;;;;15.74;100.00;100486.28;5043339;28;20037;-78
2023/09/01 06:57:40;;;;;;;8.70;5.20;;;;;;;15.70;100.00;100496.13;5044199;28;20036;-78
2023/09/01 07:00:07;;;;;;;8.77;4.93;;;;;;;15.94;100.00;100499.50;5046709;28;20025;-79
2023/09/01 07:02:33;;;;;;;7.85;4.60;;;;;;;16.13;100.00;100503.84;5046139;28;20051;-80
2023/09/01 07:04:59;;;;;;;8.00;4.90;;;;;;;16.34;100.00;100516.75;5028970;28;20025;-81
2023/09/01 07:07:25;;;;;;;8.00;4.30;;;;;;;16.46;100.00;100519.34;5044857;28;20044;-80
2023/09/01 07:09:51;;;;;;;10.35;4.97;;;;;;;16.45;100.00;100525.09;5041396;28;20053;-79
2023/09/01 07:12:17;;;;;;;8.18;4.68;;;;;;;16.48;100.00;100527.31;5040410;28;20048;-80
2023/09/01 07:14:43;;;;;;;7.93;4.90;;;;;;;16.58;100.00;100518.34;5038322;28;20133;-80
2023/09/01 07:17:13;;;;;;;6.78;4.38;;;;;;;16.61;100.00;100523.31;5033033;28;20120;-80
2023/09/01 07:19:41;;;;;;;7.97;4.38;;;;;;;16.73;100.00;100525.91;5037350;28;20484;-80
2023/09/01 07:22:07;;;;;;;;;;;;;;;16.73;100.00;100529.53;5040276;28;20086;-81
2023/09/01 07:24:33;;;;;;;7.07;4.18;;;;;;;16.80;100.00;100537.53;5037142;28;19973;-80
2023/09/01 07:26:59;;;;;;;9.35;4.53;;;;;;;16.99;100.00;100534.44;5040844;28;20037;-80
2023/09/01 07:29:25;;;;;;;7.18;3.90;;;;;;;17.03;100.00;100535.56;5032751;28;20033;-79
2023/09/01 07:31:53;;;;;;;7.95;4.20;;;;;;;17.18;100.00;100513.66;5041228;28;20133;-79
2023/09/01 07:34:19;;;;;;;10.25;5.00;;;;;;;17.29;100.00;100524.75;5035784;28;20386;-80
2023/09/01 07:36:45;;;;;;;11.05;4.25;;;;;;;17.53;100.00;100531.53;5036620;28;20068;-82
2023/09/01 07:39:11;;;;;;;10.40;4.90;;;;;;;17.64;100.00;100534.34;5039202;28;20044;-80
2023/09/01 07:41:37;;;;;;;8.80;4.85;;;;;;;17.64;100.00;100537.94;5036068;28;20473;-79
2023/09/01 07:44:03;;;;;;;9.90;4.93;;;;;;;17.81;100.00;100545.22;5047278;28;20095;-81
2023/09/01 07:46:33;;;;;;;9.55;4.20;;;;;;;17.80;100.00;100552.63;5046503;28;20029;-79
2023/09/01 07:48:59;;;;;;;8.20;4.28;;;;;;;17.82;100.00;100553.19;5035676;28;20049;-80
2023/09/01 07:51:25;;;;;;;9.90;4.25;;;;;;;17.95;100.00;100549.13;5041184;28;20473;-81
2023/09/01 07:53:54;;;;;;;7.38;4.25;;;;;;;18.12;100.00;100553.66;5035535;28;20095;-80
2023/09/01 07:56:20;;;;;;;9.27;4.28;;;;;;;18.22;100.00;100556.44;5045494;28;20124;-80
2023/09/01 07:58:46;;;;;;;7.82;3.83;;;;;;;18.36;100.00;100553.19;5032227;28;20164;-80
2023/09/01 08:01:13;;;;;;;7.35;4.20;;;;;;;18.30;100.00;100557.84;5037105;28;20778;-81
2023/09/01 08:03:39;;;;;;;8.02;4.07;;;;;;;18.34;100.00;100555.38;5048368;28;20543;-80
2023/09/01 08:06:05;;;;;;;7.88;4.00;;;;;;;18.54;100.00;100562.91;5044951;28;20091;-80
2023/09/01 08:08:31;;;;;;;9.02;3.70;;;;;;;18.59;100.00;100560.13;5047218;28;20053;-81
2023/09/01 08:10:57;;;;;;;7.60;3.60;;;;;;;18.48;100.00;100558.47;5044201;28;20033;-81
2023/09/01 08:13:26;;;;;;;8.60;3.70;;;;;;;18.60;100.00;100552.69;5027469;28;20503;-78
2023/09/01 08:15:52;;;;;;;9.05;3.70;;;;;;;18.37;100.00;100544.63;5046772;28;20036;-79
2023/09/01 08:18:18;;;;;;;8.88;3.55;;;;;;;18.47;100.00;100545.75;5047290;28;20423;-80
2023/09/01 08:20:44;;;;;;;11.30;3.63;;;;;;;18.54;100.00;100549.09;5044863;28;20083;-79
2023/09/01 08:23:10;;;;;;;7.57;3.38;;;;;;;18.81;100.00;100559.88;5045993;28;20049;-79
2023/09/01 08:25:37;;;;;;;7.72;3.92;;;;;;;19.03;100.00;100549.72;5046612;28;20423;-79
2023/09/01 08:28:04;;;;;;;8.45;3.25;;;;;;;19.11;100.00;100551.94;5040628;28;20037;-79
2023/09/01 08:30:30;;;;;;;8.23;3.83;;;;;;;19.46;100.00;100555.75;5031252;28;20045;-80
2023/09/01 08:32:57;;;;;;;8.50;4.15;;;;;;;19.44;100.00;100557.97;5030693;28;20045;-80
2023/09/01 08:35:23;;;;;;;7.30;3.67;;;;;;;19.64;100.00;100554.38;5032982;28;20042;-81
2023/09/01 08:37:49;;;;;;;7.28;3.10;;;;;;;19.84;100.00;100553.47;5042678;28;20096;-81
2023/09/01 08:40:15;;;;;;;8.07;3.65;;;;;;;19.76;100.00;100543.00;5037682;28;20133;-81
2023/09/01 08:42:50;;;;;;;10.48;4.32;;;;;;;20.01;100.00;100554.28;5035270;28;20061;-80
2023/09/01 08:45:19;;;;;;;11.10;3.92;;;;;;;20.03;100.00;100546.50;5035609;28;20117;-81
2023/09/01 08:47:47;;;;;;;10.38;3.65;;;;;;;19.91;100.00;100547.69;5057245;28;20045;-83
2023/09/01 08:50:14;;;;;;;9.18;4.28;;;;;;;20.22;100.00;100547.53;5036857;28;20083;-82
2023/09/01 08:52:47;;;;;;;7.67;3.53;;;;;;;20.30;100.00;100557.19;5037854;28;20060;-82
2023/09/01 08:55:13;;;;;;;8.40;3.92;;;;;;;20.37;100.00;100549.41;5045140;28;20119;-82
2023/09/01 08:57:40;;;;;;;9.73;4.60;;;;;;;20.22;100.00;100555.00;5035911;28;20041;-82
2023/09/01 09:00:10;;;;;;;10.43;3.67;;;;;;;20.33;100.00;100553.03;5048820;28;20044;-81
2023/09/01 09:02:41;;;;;;;7.88;3.80;;;;;;;20.48;100.00;100549.31;5024137;28;20175;-82
2023/09/01 09:05:14;;;;;;;8.07;3.85;;;;;;;20.80;100.00;100551.66;5041580;28;20048;-81
2023/09/01 09:07:41;;;;;;;9.02;3.58;;;;;;;21.25;100.00;100542.44;5037776;28;20118;-82
2023/09/01 09:10:08;;;;;;;8.52;3.50;;;;;;;21.39;100.00;100537.84;5058875;28;20040;-82
2023/09/01 09:12:37;;;;;;;7.28;3.58;;;;;;;21.58;100.00;100548.19;5049850;28;20048;-82
2023/09/01 09:15:04;;;;;;;8.07;3.55;;;;;;;21.64;100.00;100543.44;5043767;28;20544;-81
2023/09/01 09:17:44;;;;;;;9.10;3.97;;;;;;;21.57;100.00;100549.31;5044483;28;20465;-82
2023/09/01 09:20:17;;;;;;;10.45;3.60;;;;;;;21.10;100.00;100557.25;5049482;28;20044;-82
2023/09/01 09:22:54;;;;;;;6.75;3.40;;;;;;;21.55;100.00;100551.56;5035635;28;20524;-81
2023/09/01 09:25:35;;;;;;;6.23;3.27;;;;;;;21.89;100.00;100552.63;5052905;28;20501;-82
2023/09/01 09:28:12;;;;;;;9.07;3.55;;;;;;;22.17;100.00;100552.84;5042097;28;20317;-80
2023/09/01 09:30:51;;;;;;;8.73;3.42;;;;;;;22.63;100.00;100543.06;5034111;28;20048;-80
2023/09/01 09:33:27;;;;;;;7.75;3.17;;;;;;;22.99;97.16;100540.53;5034063;28;20109;-79
2023/09/01 09:35:53;;;;;;;10.07;3.20;;;;;;;23.30;91.93;100530.84;5048020;28;20511;-79
2023/09/01 09:38:19;;;;;;;9.45;3.33;;;;;;;23.50;87.87;100540.78;5034550;28;20085;-79
2023/09/01 09:41:01;;;;;;;10.25;3.20;;;;;;;23.80;91.46;100543.28;5034849;28;20053;-81
2023/09/01 09:43:27;;;;;;;8.57;3.47;;;;;;;24.08;88.57;100537.72;5028373;28;20105;-79
2023/09/01 09:45:54;;;;;;;7.43;3.00;;;;;;;23.66;85.40;100538.53;5035247;28;20136;-79
2023/09/01 09:48:21;;;;;;;6.97;3.03;;;;;;;23.89;86.72;100547.00;5034146;28;20044;-78
2023/09/01 09:50:51;;;;;;;8.60;3.25;;;;;;;23.66;91.38;100548.84;5033826;28;20397;-78
2023/09/01 09:53:24;;;;;;;8.15;3.45;;;;;;;23.67;94.12;100551.31;5040178;28;20036;-79
2023/09/01 09:55:52;;;;;;;8.63;3.28;;;;;;;23.85;95.64;100548.72;5037761;28;20017;-79
2023/09/01 09:58:22;;;;;;;;;;;;;;;23.92;92.46;100554.72;5038181;28;20106;-80
2023/09/01 10:01:02;;;;;;;7.40;3.40;;;;;;;24.02;90.29;100555.69;5049296;28;19921;-81
2023/09/01 10:03:31;;;;;;;7.50;3.30;;;;;;;24.52;84.96;100561.28;5033442;28;20116;-79
2023/09/01 10:06:03;;;;;;;8.38;4.13;;;;;;;24.43;77.38;100554.81;5034112;28;20474;-79
2023/09/01 10:08:31;;;;;;;8.20;3.97;;;;;;;24.12;78.93;100563.81;5033636;28;20038;-80
2023/09/01 10:10:59;;;;;;;9.80;3.85;;;;;;;25.07;81.07;100565.03;5043098;28;20037;-80
2023/09/01 10:13:25;;;;;;;8.40;3.65;;;;;;;24.93;74.63;100559.53;5034549;28;20037;-79
2023/09/01 10:15:53;;;;;;;12.25;3.80;;;;;;;24.42;77.23;100569.88;5039807;28;20072;-80
2023/09/01 10:18:20;;;;;;;7.05;3.20;;;;;;;24.24;77.20;100558.56;5036811;28;20444;-80
2023/09/01 10:20:46;;;;;;;7.88;3.13;;;;;;;24.77;76.49;100567.44;5036405;28;20379;-80
2023/09/01 10:23:13;;;;;;;9.00;3.35;;;;;;;24.96;76.05;100569.22;5047434;28;20034;-79
2023/09/01 10:25:40;;;;;;;7.35;3.10;;;;;;;24.40;69.79;100567.41;5034400;28;20080;-80
2023/09/01 10:28:07;;;;;;;7.80;3.05;;;;;;;25.87;70.35;100579.47;5036679;28;20041;-79
2023/09/01 10:30:44;;;;;;;8.15;2.78;;;;;;;28.03;55.64;100567.22;5037488;28;20033;-79
2023/09/01 10:33:14;;;;;;;7.65;2.50;;;;;;;26.90;51.31;100565.19;5033653;28;20502;-80
2023/09/01 10:35:48;;;;;;;8.77;2.70;;;;;;;26.60;56.45;100569.78;5042756;28;20034;-80
2023/09/01 10:38:40;;;;;;;6.80;2.35;;;;;;;27.30;57.84;100571.75;5037961;28;20042;-80
2023/09/01 10:41:07;;;;;;;7.35;2.28;;;;;;;26.70;57.32;100569.47;5032356;28;20049;-79
2023/09/01 10:43:41;;;;;;;5.07;2.15;;;;;;;26.85;58.19;100577.41;5033222;28;20034;-80
2023/09/01 10:46:16;;;;;;;7.32;2.50;;;;;;;27.69;52.92;100575.44;5034010;28;20041;-80
2023/09/01 10:49:04;;;;;;;5.25;2.15;;;;;;;27.52;53.43;100581.94;5033878;28;20095;-80
2023/09/01 10:51:37;;;;;;;5.43;1.93;;;;;;;26.93;52.71;100578.56;5046578;28;20067;-79
2023/09/01 10:54:23;;;;;;;6.88;2.10;;;;;;;26.46;50.84;100565.16;5046566;28;20137;-80
2023/09/01 10:57:01;;;;;;;6.22;1.90;;;;;;;26.44;53.71;100583.44;5029328;28;20536;-80
2023/09/01 10:59:29;;;;;;;;;;;;;;;26.20;53.54;100573.53;5040770;28;20043;-79
2023/09/01 11:01:55;;;;;;;5.05;1.50;;;;;;;25.71;52.73;100579.88;5035143;28;20262;-79
2023/09/01 11:04:21;;;;;;;4.80;1.90;;;;;;;25.08;58.47;100585.41;5038841;28;20485;-79
2023/09/01 11:07:01;;;;;;;4.60;1.73;;;;;;;25.05;63.67;100586.84;5038869;28;20033;-80
2023/09/01 11:09:33;;;;;;;5.38;2.00;;;;;;;25.17;61.90;100580.69;5032912;28;20053;-79
2023/09/01 11:12:03;;;;;;;5.88;2.03;;;;;;;25.22;63.17;100574.19;5032719;28;20068;-80
2023/09/01 11:14:33;;;;;;;6.78;2.10;;;;;;;25.35;66.13;100578.03;5038786;28;20474;-79